createdAt,value
2023-05-13T01:45:49.453Z,87.09
2023-05-13T01:48:56.103Z,87.55
2023-05-13T01:51:42.910Z,87.92
2023-05-13T01:54:09.745Z,88.03
2023-05-13T01:56:59.245Z,88.18
2023-05-13T01:59:26.176Z,88.27
2023-05-13T02:01:53.675Z,88.46
2023-05-13T02:05:02.493Z,88.64
2023-05-13T02:14:26.098Z,88.85
2023-05-13T03:07:57.467Z,88.04
2023-05-13T03:35:14.521Z,89.52
2023-05-13T03:38:58.817Z,89.22
2023-05-13T03:42:40.195Z,89.12
2023-05-13T03:50:05.530Z,89.41
2023-05-13T03:53:12.815Z,88.98
2023-05-13T03:55:41.416Z,88.79
2023-05-13T03:59:04.038Z,88.89
2023-05-13T04:35:29.266Z,86.39
2023-05-13T04:43:25.608Z,85.65
2023-05-13T04:56:47.956Z,84.73
2023-05-13T05:00:19.096Z,84.00
2023-05-13T05:02:48.203Z,83.70
2023-05-13T05:06:29.868Z,83.29
2023-05-13T05:29:46.705Z,83.24
2023-05-13T05:32:35.796Z,82.56
2023-05-13T05:35:43.863Z,82.44
2023-05-13T05:38:53.454Z,82.47
2023-05-13T05:41:43.631Z,82.72
2023-05-13T05:44:51.510Z,83.07
2023-05-13T05:48:20.456Z,83.56
2023-05-13T05:51:49.406Z,83.90
2023-05-13T05:54:39.161Z,83.66
2023-05-13T05:57:43.653Z,84.10
2023-05-13T06:01:31.525Z,83.86
2023-05-13T06:04:39.775Z,84.36
2023-05-13T06:07:48.265Z,84.47
2023-05-13T06:10:56.253Z,84.46
2023-05-13T06:14:04.129Z,83.92
2023-05-13T06:16:32.082Z,83.80
2023-05-13T06:19:20.810Z,84.15
2023-05-13T06:22:08.799Z,84.17
2023-05-13T06:25:16.631Z,83.62
2023-05-13T06:28:24.947Z,83.21
2023-05-13T06:31:13.648Z,82.84
2023-05-13T06:34:02.132Z,82.57
2023-05-13T06:36:50.609Z,82.48
2023-05-13T06:39:38.955Z,82.57
2023-05-13T06:42:07.616Z,82.21
2023-05-13T06:45:01.810Z,82.16
2023-05-13T06:48:31.539Z,81.94
2023-05-13T06:51:19.613Z,82.41
2023-05-13T06:54:35.790Z,82.90
2023-05-13T06:57:32.257Z,82.87
2023-05-13T07:00:27.761Z,82.18
2023-05-13T07:03:57.073Z,81.84
2023-05-13T07:16:01.852Z,81.46
2023-05-13T07:36:45.803Z,83.27
2023-05-13T07:52:30.508Z,80.07
2023-05-13T08:12:54.025Z,80.14
2023-05-13T08:24:48.090Z,80.74
2023-05-13T08:36:35.434Z,81.30
2023-05-13T08:39:24.632Z,81.24
2023-05-13T08:41:57.764Z,81.18
2023-05-13T08:44:29.311Z,80.25
2023-05-13T08:47:22.330Z,79.85
2023-05-13T08:49:51.302Z,79.81
2023-05-13T08:53:00.868Z,80.14
2023-05-13T08:56:09.862Z,80.33
2023-05-13T08:59:53.805Z,80.22
2023-05-13T09:03:23.957Z,79.83
2023-05-13T09:14:38.092Z,76.52
2023-05-13T09:25:24.537Z,74.02
2023-05-13T09:29:33.252Z,74.60
2023-05-13T09:49:37.972Z,74.39
2023-05-13T09:53:27.141Z,74.86
2023-05-13T09:57:01.486Z,73.41
2023-05-13T10:12:39.423Z,72.75
2023-05-13T10:16:16.788Z,72.24
2023-05-13T10:19:26.524Z,71.82
2023-05-13T10:31:38.207Z,71.54
2023-05-13T10:43:50.377Z,70.27
2023-05-13T10:55:47.539Z,70.80
2023-05-13T11:07:39.772Z,70.70
2023-05-13T11:11:28.370Z,70.13
2023-05-13T11:19:52.400Z,69.43
2023-05-13T11:31:40.139Z,66.56
2023-05-13T11:46:07.236Z,64.55
2023-05-13T12:02:02.885Z,64.25
2023-05-13T12:06:31.797Z,63.89
2023-05-13T12:19:02.556Z,62.72
2023-05-13T12:22:10.387Z,63.27
2023-05-13T12:25:18.955Z,63.59
2023-05-13T12:57:33.697Z,59.85
2023-05-13T13:00:02.518Z,59.33
2023-05-13T13:02:31.104Z,59.13
2023-05-13T13:05:40.284Z,58.07
2023-05-13T13:08:12.526Z,58.00
2023-05-13T13:10:44.263Z,57.64
2023-05-13T13:13:36.642Z,58.24
2023-05-13T13:16:07.589Z,58.09
2023-05-13T13:18:36.054Z,57.16
2023-05-13T13:21:05.867Z,56.75
2023-05-13T13:23:35.024Z,56.94
2023-05-13T13:26:03.755Z,56.54
2023-05-13T13:28:32.449Z,56.08
2023-05-13T13:31:01.938Z,56.34
2023-05-13T13:45:56.679Z,54.61
2023-05-13T13:57:08.447Z,54.72
2023-05-13T14:00:37.316Z,54.37
2023-05-13T14:12:54.118Z,54.81
2023-05-13T14:32:57.957Z,54.96
2023-05-13T14:36:46.931Z,55.11
2023-05-13T14:56:13.708Z,55.47
2023-05-13T15:00:02.227Z,55.69
2023-05-13T15:11:34.429Z,54.83
2023-05-13T15:15:22.743Z,54.95
2023-05-13T15:26:49.036Z,55.45
2023-05-13T15:30:17.965Z,55.21
2023-05-13T15:41:39.143Z,55.55
2023-05-13T15:56:18.431Z,56.25
2023-05-13T15:59:47.748Z,56.46
2023-05-13T16:02:57.381Z,56.54
2023-05-13T16:07:05.412Z,56.47
2023-05-13T16:10:34.097Z,56.53
2023-05-13T16:43:42.161Z,58.35
2023-05-13T16:47:12.250Z,58.58
2023-05-13T16:58:42.437Z,59.09
2023-05-13T17:10:34.095Z,59.45
2023-05-13T17:31:11.799Z,60.26
2023-05-13T17:34:40.347Z,60.52
2023-05-13T17:38:28.579Z,61.02
2023-05-13T17:54:04.667Z,61.50
2023-05-13T18:05:57.777Z,62.09
2023-05-13T18:17:48.578Z,62.73
2023-05-13T18:38:13.616Z,63.55
2023-05-13T18:50:24.403Z,64.30
2023-05-13T19:02:23.682Z,64.37
2023-05-13T19:18:14.907Z,64.85
2023-05-13T19:20:46.715Z,65.10
2023-05-13T19:24:35.349Z,65.31
2023-05-13T19:27:24.178Z,65.55
2023-05-13T19:29:52.536Z,65.39
2023-05-13T19:32:20.949Z,65.11
2023-05-13T19:34:49.134Z,65.08
2023-05-13T19:37:17.708Z,65.13
2023-05-13T19:39:46.853Z,65.29
2023-05-13T19:42:35.915Z,65.33
2023-05-13T19:45:06.443Z,65.49
2023-05-13T19:48:09.835Z,65.66
2023-05-13T19:50:58.623Z,65.82
2023-05-13T19:53:26.658Z,65.89
2023-05-13T19:55:55.854Z,66.06
2023-05-13T19:58:23.871Z,66.34
2023-05-13T20:00:51.821Z,66.52
2023-05-13T20:03:19.917Z,66.75
2023-05-13T20:05:51.409Z,67.03
2023-05-13T20:08:20.697Z,67.40
2023-05-13T20:10:48.695Z,67.59
2023-05-13T20:14:03.093Z,67.78
2023-05-13T20:16:58.121Z,67.94
2023-05-13T20:19:57.173Z,68.10
2023-05-13T20:22:46.730Z,68.31
2023-05-13T20:25:39.548Z,68.46
2023-05-13T20:29:00.156Z,68.75
2023-05-13T20:32:30.681Z,68.77
2023-05-13T20:36:20.517Z,69.03
2023-05-13T20:43:01.688Z,69.22
2023-05-13T20:46:13.799Z,69.00
2023-05-13T20:50:06.407Z,69.01
2023-05-13T20:53:36.466Z,69.10
2023-05-13T20:56:51.142Z,69.38
2023-05-13T21:00:01.436Z,69.36
2023-05-13T21:03:31.109Z,69.55
2023-05-13T21:07:54.964Z,69.59
2023-05-13T21:16:17.100Z,69.81
